sensor_id;sensor_type;location;lat;lon;timestamp;temperature;humidity
35363;DHT22;21463;47.480;8.214;2022-08-24T00:00:00;21.80;56.80
35363;DHT22;21463;47.480;8.214;2022-08-24T00:01:04;21.80;56.70
35363;DHT22;21463;47.480;8.214;2022-08-24T00:02:07;21.70;56.70
35363;DHT22;21463;47.480;8.214;2022-08-24T00:03:13;21.80;56.80
35363;DHT22;21463;47.480;8.214;2022-08-24T00:04:16;21.70;56.70
35363;DHT22;21463;47.480;8.214;2022-08-24T00:05:19;21.80;56.80
35363;DHT22;21463;47.480;8.214;2022-08-24T00:06:23;21.80;56.80
35363;DHT22;21463;47.480;8.214;2022-08-24T00:07:26;21.70;56.70
35363;DHT22;21463;47.480;8.214;2022-08-24T00:08:30;21.80;56.80
35363;DHT22;21463;47.480;8.214;2022-08-24T00:09:33;21.70;57.30
35363;DHT22;21463;47.480;8.214;2022-08-24T00:10:38;21.80;56.80
35363;DHT22;21463;47.480;8.214;2022-08-24T00:11:41;21.80;56.80
35363;DHT22;21463;47.480;8.214;2022-08-24T00:12:46;21.80;56.80
35363;DHT22;21463;47.480;8.214;2022-08-24T00:13:48;21.80;56.80
35363;DHT22;21463;47.480;8.214;2022-08-24T00:14:52;21.70;56.70
35363;DHT22;21463;47.480;8.214;2022-08-24T00:15:57;21.70;56.70
35363;DHT22;21463;47.480;8.214;2022-08-24T00:17:02;21.70;56.70
35363;DHT22;21463;47.480;8.214;2022-08-24T00:18:04;21.80;56.80
35363;DHT22;21463;47.480;8.214;2022-08-24T00:19:07;21.70;56.70
35363;DHT22;21463;47.480;8.214;2022-08-24T00:20:10;21.80;56.80
35363;DHT22;21463;47.480;8.214;2022-08-24T00:21:13;21.80;56.80
35363;DHT22;21463;47.480;8.214;2022-08-24T00:22:17;21.70;56.70
35363;DHT22;21463;47.480;8.214;2022-08-24T00:23:20;21.70;56.70
35363;DHT22;21463;47.480;8.214;2022-08-24T00:24:23;21.70;56.70
35363;DHT22;21463;47.480;8.214;2022-08-24T00:25:26;21.80;56.80
35363;DHT22;21463;47.480;8.214;2022-08-24T00:26:29;21.70;56.70
35363;DHT22;21463;47.480;8.214;2022-08-24T00:27:31;21.70;56.80
35363;DHT22;21463;47.480;8.214;2022-08-24T00:28:34;21.70;56.70
35363;DHT22;21463;47.480;8.214;2022-08-24T00:29:41;21.70;56.80
35363;DHT22;21463;47.480;8.214;2022-08-24T00:30:43;21.70;56.80
35363;DHT22;21463;47.480;8.214;2022-08-24T00:31:46;21.70;56.70
35363;DHT22;21463;47.480;8.214;2022-08-24T00:32:48;21.70;56.80
35363;DHT22;21463;47.480;8.214;2022-08-24T00:33:53;21.70;56.80
35363;DHT22;21463;47.480;8.214;2022-08-24T00:35:00;21.70;56.80
35363;DHT22;21463;47.480;8.214;2022-08-24T00:36:05;21.70;56.70
35363;DHT22;21463;47.480;8.214;2022-08-24T00:37:08;21.70;56.70
35363;DHT22;21463;47.480;8.214;2022-08-24T00:38:10;21.70;56.80
35363;DHT22;21463;47.480;8.214;2022-08-24T00:39:13;21.70;56.80
35363;DHT22;21463;47.480;8.214;2022-08-24T00:41:24;21.70;56.80
35363;DHT22;21463;47.480;8.214;2022-08-24T00:42:26;21.70;56.80
35363;DHT22;21463;47.480;8.214;2022-08-24T00:43:29;21.70;56.80
35363;DHT22;21463;47.480;8.214;2022-08-24T00:44:32;21.70;57.30
35363;DHT22;21463;47.480;8.214;2022-08-24T00:45:45;21.70;56.80
35363;DHT22;21463;47.480;8.214;2022-08-24T00:47:02;21.70;56.80
35363;DHT22;21463;47.480;8.214;2022-08-24T00:48:12;21.70;56.80
35363;DHT22;21463;47.480;8.214;2022-08-24T00:49:37;21.70;56.70
35363;DHT22;21463;47.480;8.214;2022-08-24T00:50:44;21.70;56.80
35363;DHT22;21463;47.480;8.214;2022-08-24T00:51:55;21.70;56.80
35363;DHT22;21463;47.480;8.214;2022-08-24T00:53:02;21.70;56.80
35363;DHT22;21463;47.480;8.214;2022-08-24T00:54:11;21.70;57.40
35363;DHT22;21463;47.480;8.214;2022-08-24T00:55:19;21.70;56.80
35363;DHT22;21463;47.480;8.214;2022-08-24T00:56:28;21.70;56.80
35363;DHT22;21463;47.480;8.214;2022-08-24T00:57:35;21.70;56.80
35363;DHT22;21463;47.480;8.214;2022-08-24T00:58:44;21.70;56.80
35363;DHT22;21463;47.480;8.214;2022-08-24T00:59:54;21.70;56.80
35363;DHT22;21463;47.480;8.214;2022-08-24T01:01:00;21.70;56.80
35363;DHT22;21463;47.480;8.214;2022-08-24T01:02:08;21.70;56.80
35363;DHT22;21463;47.480;8.214;2022-08-24T01:03:17;21.70;57.40
35363;DHT22;21463;47.480;8.214;2022-08-24T01:04:29;21.70;56.80
35363;DHT22;21463;47.480;8.214;2022-08-24T01:05:35;21.70;56.80
35363;DHT22;21463;47.480;8.214;2022-08-24T01:06:38;21.70;56.90
35363;DHT22;21463;47.480;8.214;2022-08-24T01:07:41;21.70;56.90
35363;DHT22;21463;47.480;8.214;2022-08-24T01:08:43;21.70;56.80
35363;DHT22;21463;47.480;8.214;2022-08-24T01:09:47;21.70;56.80
35363;DHT22;21463;47.480;8.214;2022-08-24T01:10:54;21.70;56.80
35363;DHT22;21463;47.480;8.214;2022-08-24T01:11:57;21.70;56.80
35363;DHT22;21463;47.480;8.214;2022-08-24T01:13:02;21.70;56.80
35363;DHT22;21463;47.480;8.214;2022-08-24T01:14:07;21.70;56.80
35363;DHT22;21463;47.480;8.214;2022-08-24T01:15:11;21.70;56.80
35363;DHT22;21463;47.480;8.214;2022-08-24T01:16:14;21.70;56.80
35363;DHT22;21463;47.480;8.214;2022-08-24T01:17:38;21.70;56.80
35363;DHT22;21463;47.480;8.214;2022-08-24T01:18:59;21.70;56.80
35363;DHT22;21463;47.480;8.214;2022-08-24T01:20:03;21.70;56.80
35363;DHT22;21463;47.480;8.214;2022-08-24T01:21:29;21.70;56.80
35363;DHT22;21463;47.480;8.214;2022-08-24T01:24:10;21.70;56.80
35363;DHT22;21463;47.480;8.214;2022-08-24T01:25:14;21.70;56.80
35363;DHT22;21463;47.480;8.214;2022-08-24T01:26:38;21.70;56.80
35363;DHT22;21463;47.480;8.214;2022-08-24T01:27:41;21.70;56.80
35363;DHT22;21463;47.480;8.214;2022-08-24T01:28:51;21.70;56.80
35363;DHT22;21463;47.480;8.214;2022-08-24T01:29:58;21.70;56.90
35363;DHT22;21463;47.480;8.214;2022-08-24T01:31:01;21.70;56.80
35363;DHT22;21463;47.480;8.214;2022-08-24T01:32:04;21.70;56.80
35363;DHT22;21463;47.480;8.214;2022-08-24T01:33:08;21.70;56.80
35363;DHT22;21463;47.480;8.214;2022-08-24T01:34:11;21.70;56.80
35363;DHT22;21463;47.480;8.214;2022-08-24T01:35:14;21.70;56.80
35363;DHT22;21463;47.480;8.214;2022-08-24T01:37:31;21.70;56.90
35363;DHT22;21463;47.480;8.214;2022-08-24T01:38:36;21.70;56.80
35363;DHT22;21463;47.480;8.214;2022-08-24T01:39:42;21.70;56.80
35363;DHT22;21463;47.480;8.214;2022-08-24T01:40:49;21.70;56.80
35363;DHT22;21463;47.480;8.214;2022-08-24T01:41:53;21.70;56.80
35363;DHT22;21463;47.480;8.214;2022-08-24T01:42:55;21.70;56.80
35363;DHT22;21463;47.480;8.214;2022-08-24T01:43:59;21.70;56.80
35363;DHT22;21463;47.480;8.214;2022-08-24T01:45:03;21.70;56.80
35363;DHT22;21463;47.480;8.214;2022-08-24T01:46:10;21.70;56.80
35363;DHT22;21463;47.480;8.214;2022-08-24T01:47:14;21.70;56.80
35363;DHT22;21463;47.480;8.214;2022-08-24T01:48:17;21.70;57.40
35363;DHT22;21463;47.480;8.214;2022-08-24T01:49:28;21.70;56.80
35363;DHT22;21463;47.480;8.214;2022-08-24T01:50:30;21.70;56.80
35363;DHT22;21463;47.480;8.214;2022-08-24T01:51:33;21.70;56.80
35363;DHT22;21463;47.480;8.214;2022-08-24T01:52:38;21.70;56.80
35363;DHT22;21463;47.480;8.214;2022-08-24T01:54:03;21.70;56.80
35363;DHT22;21463;47.480;8.214;2022-08-24T01:55:08;21.70;56.80
35363;DHT22;21463;47.480;8.214;2022-08-24T01:56:10;21.70;56.80
35363;DHT22;21463;47.480;8.214;2022-08-24T01:57:14;21.70;56.80
35363;DHT22;21463;47.480;8.214;2022-08-24T01:58:19;21.70;56.90
35363;DHT22;21463;47.480;8.214;2022-08-24T01:59:23;21.70;56.80
35363;DHT22;21463;47.480;8.214;2022-08-24T02:00:27;21.70;56.80
35363;DHT22;21463;47.480;8.214;2022-08-24T02:01:33;21.70;56.80
35363;DHT22;21463;47.480;8.214;2022-08-24T02:02:36;21.70;56.80
35363;DHT22;21463;47.480;8.214;2022-08-24T02:03:41;21.70;56.80
35363;DHT22;21463;47.480;8.214;2022-08-24T02:04:45;21.70;56.80
35363;DHT22;21463;47.480;8.214;2022-08-24T02:05:47;21.70;56.80
35363;DHT22;21463;47.480;8.214;2022-08-24T02:06:50;21.70;56.80
35363;DHT22;21463;47.480;8.214;2022-08-24T02:07:52;21.70;56.80
35363;DHT22;21463;47.480;8.214;2022-08-24T02:08:55;21.70;56.80
35363;DHT22;21463;47.480;8.214;2022-08-24T02:09:59;21.70;56.80
35363;DHT22;21463;47.480;8.214;2022-08-24T02:11:08;21.70;56.80
35363;DHT22;21463;47.480;8.214;2022-08-24T02:12:11;21.70;56.70
35363;DHT22;21463;47.480;8.214;2022-08-24T02:13:13;21.70;56.70
35363;DHT22;21463;47.480;8.214;2022-08-24T02:14:16;21.70;56.80
35363;DHT22;21463;47.480;8.214;2022-08-24T02:15:20;21.70;56.80
35363;DHT22;21463;47.480;8.214;2022-08-24T02:16:25;21.70;56.80
35363;DHT22;21463;47.480;8.214;2022-08-24T02:17:28;21.70;56.70
35363;DHT22;21463;47.480;8.214;2022-08-24T02:18:31;21.70;56.70
35363;DHT22;21463;47.480;8.214;2022-08-24T02:19:35;21.70;56.80
35363;DHT22;21463;47.480;8.214;2022-08-24T02:20:38;21.70;56.70
35363;DHT22;21463;47.480;8.214;2022-08-24T02:21:40;21.70;56.70
35363;DHT22;21463;47.480;8.214;2022-08-24T02:22:43;21.70;56.80
35363;DHT22;21463;47.480;8.214;2022-08-24T02:23:45;21.70;56.70
35363;DHT22;21463;47.480;8.214;2022-08-24T02:24:48;21.70;56.80
35363;DHT22;21463;47.480;8.214;2022-08-24T02:25:51;21.70;57.30
35363;DHT22;21463;47.480;8.214;2022-08-24T02:26:54;21.70;56.80
35363;DHT22;21463;47.480;8.214;2022-08-24T02:27:59;21.70;56.70
35363;DHT22;21463;47.480;8.214;2022-08-24T02:29:02;21.70;56.70
35363;DHT22;21463;47.480;8.214;2022-08-24T02:30:06;21.60;56.70
35363;DHT22;21463;47.480;8.214;2022-08-24T02:31:11;21.70;56.70
35363;DHT22;21463;47.480;8.214;2022-08-24T02:32:14;21.70;56.70
35363;DHT22;21463;47.480;8.214;2022-08-24T02:33:17;21.70;56.80
35363;DHT22;21463;47.480;8.214;2022-08-24T02:34:20;21.70;56.70
35363;DHT22;21463;47.480;8.214;2022-08-24T02:35:22;21.70;56.70
35363;DHT22;21463;47.480;8.214;2022-08-24T02:36:25;21.70;56.70
35363;DHT22;21463;47.480;8.214;2022-08-24T02:37:31;21.60;56.70
35363;DHT22;21463;47.480;8.214;2022-08-24T02:38:34;21.60;56.70
35363;DHT22;21463;47.480;8.214;2022-08-24T02:39:41;21.70;56.70
35363;DHT22;21463;47.480;8.214;2022-08-24T02:40:48;21.70;56.70
35363;DHT22;21463;47.480;8.214;2022-08-24T02:41:51;21.70;57.30
35363;DHT22;21463;47.480;8.214;2022-08-24T02:42:54;21.60;56.60
35363;DHT22;21463;47.480;8.214;2022-08-24T02:43:56;21.70;56.70
35363;DHT22;21463;47.480;8.214;2022-08-24T02:44:59;21.70;56.70
35363;DHT22;21463;47.480;8.214;2022-08-24T02:46:03;21.70;56.70
35363;DHT22;21463;47.480;8.214;2022-08-24T02:47:08;21.60;56.60
35363;DHT22;21463;47.480;8.214;2022-08-24T02:48:13;21.60;56.70
35363;DHT22;21463;47.480;8.214;2022-08-24T02:49:15;21.70;56.70
35363;DHT22;21463;47.480;8.214;2022-08-24T02:50:20;21.70;56.70
35363;DHT22;21463;47.480;8.214;2022-08-24T02:51:26;21.70;56.70
35363;DHT22;21463;47.480;8.214;2022-08-24T02:52:31;21.60;56.60
35363;DHT22;21463;47.480;8.214;2022-08-24T02:53:33;21.60;56.60
35363;DHT22;21463;47.480;8.214;2022-08-24T02:54:36;21.70;56.70
35363;DHT22;21463;47.480;8.214;2022-08-24T02:55:39;21.60;56.60
35363;DHT22;21463;47.480;8.214;2022-08-24T02:56:43;21.70;56.70
35363;DHT22;21463;47.480;8.214;2022-08-24T02:57:46;21.60;56.60
35363;DHT22;21463;47.480;8.214;2022-08-24T02:58:49;21.60;56.60
35363;DHT22;21463;47.480;8.214;2022-08-24T02:59:56;21.70;56.70
35363;DHT22;21463;47.480;8.214;2022-08-24T03:00:58;21.60;56.60
35363;DHT22;21463;47.480;8.214;2022-08-24T03:02:02;21.70;56.70
35363;DHT22;21463;47.480;8.214;2022-08-24T03:03:06;21.70;56.70
35363;DHT22;21463;47.480;8.214;2022-08-24T03:04:12;21.60;56.60
35363;DHT22;21463;47.480;8.214;2022-08-24T03:05:14;21.70;57.20
35363;DHT22;21463;47.480;8.214;2022-08-24T03:06:17;21.60;56.60
35363;DHT22;21463;47.480;8.214;2022-08-24T03:07:20;21.60;56.60
35363;DHT22;21463;47.480;8.214;2022-08-24T03:08:23;21.70;56.70
35363;DHT22;21463;47.480;8.214;2022-08-24T03:09:26;21.60;56.60
35363;DHT22;21463;47.480;8.214;2022-08-24T03:10:31;21.70;56.70
35363;DHT22;21463;47.480;8.214;2022-08-24T03:11:34;21.70;56.70
35363;DHT22;21463;47.480;8.214;2022-08-24T03:12:37;21.70;56.70
35363;DHT22;21463;47.480;8.214;2022-08-24T03:13:40;21.60;56.60
35363;DHT22;21463;47.480;8.214;2022-08-24T03:14:42;21.70;56.60
35363;DHT22;21463;47.480;8.214;2022-08-24T03:15:45;21.70;56.70
35363;DHT22;21463;47.480;8.214;2022-08-24T03:16:47;21.60;56.60
35363;DHT22;21463;47.480;8.214;2022-08-24T03:17:51;21.60;56.60
35363;DHT22;21463;47.480;8.214;2022-08-24T03:18:55;21.60;56.60
35363;DHT22;21463;47.480;8.214;2022-08-24T03:20:06;21.70;56.70
35363;DHT22;21463;47.480;8.214;2022-08-24T03:21:09;21.60;56.60
35363;DHT22;21463;47.480;8.214;2022-08-24T03:22:16;21.70;56.60
35363;DHT22;21463;47.480;8.214;2022-08-24T03:23:20;21.60;57.10
35363;DHT22;21463;47.480;8.214;2022-08-24T03:24:23;21.70;56.70
35363;DHT22;21463;47.480;8.214;2022-08-24T03:25:25;21.60;56.60
35363;DHT22;21463;47.480;8.214;2022-08-24T03:26:29;21.60;56.60
35363;DHT22;21463;47.480;8.214;2022-08-24T03:27:31;21.60;56.60
35363;DHT22;21463;47.480;8.214;2022-08-24T03:28:34;21.60;56.60
35363;DHT22;21463;47.480;8.214;2022-08-24T03:29:37;21.70;56.60
35363;DHT22;21463;47.480;8.214;2022-08-24T03:30:42;21.60;56.60
35363;DHT22;21463;47.480;8.214;2022-08-24T03:31:49;21.60;56.50
35363;DHT22;21463;47.480;8.214;2022-08-24T03:32:52;21.70;56.60
35363;DHT22;21463;47.480;8.214;2022-08-24T03:33:54;21.60;56.50
35363;DHT22;21463;47.480;8.214;2022-08-24T03:34:57;21.60;56.60
35363;DHT22;21463;47.480;8.214;2022-08-24T03:36:00;21.70;56.60
35363;DHT22;21463;47.480;8.214;2022-08-24T03:37:03;21.60;56.50
35363;DHT22;21463;47.480;8.214;2022-08-24T03:38:08;21.60;56.50
35363;DHT22;21463;47.480;8.214;2022-08-24T03:39:11;21.60;56.60
35363;DHT22;21463;47.480;8.214;2022-08-24T03:40:14;21.60;56.50
35363;DHT22;21463;47.480;8.214;2022-08-24T03:41:29;21.60;56.50
35363;DHT22;21463;47.480;8.214;2022-08-24T03:42:35;21.60;56.50
35363;DHT22;21463;47.480;8.214;2022-08-24T03:43:38;21.70;56.60
35363;DHT22;21463;47.480;8.214;2022-08-24T03:44:49;21.60;56.50
35363;DHT22;21463;47.480;8.214;2022-08-24T03:45:52;21.60;56.50
35363;DHT22;21463;47.480;8.214;2022-08-24T03:46:55;21.60;56.60
35363;DHT22;21463;47.480;8.214;2022-08-24T03:47:59;21.60;56.50
35363;DHT22;21463;47.480;8.214;2022-08-24T03:49:06;21.60;56.50
35363;DHT22;21463;47.480;8.214;2022-08-24T03:50:10;21.60;56.50
35363;DHT22;21463;47.480;8.214;2022-08-24T03:51:15;21.60;56.60
35363;DHT22;21463;47.480;8.214;2022-08-24T03:52:20;21.60;56.50
35363;DHT22;21463;47.480;8.214;2022-08-24T03:53:24;21.60;56.50
35363;DHT22;21463;47.480;8.214;2022-08-24T03:54:26;21.60;56.50
35363;DHT22;21463;47.480;8.214;2022-08-24T03:55:30;21.60;56.50
35363;DHT22;21463;47.480;8.214;2022-08-24T03:56:33;21.60;56.50
35363;DHT22;21463;47.480;8.214;2022-08-24T03:57:39;21.60;56.50
35363;DHT22;21463;47.480;8.214;2022-08-24T03:58:42;21.60;56.50
35363;DHT22;21463;47.480;8.214;2022-08-24T03:59:44;21.60;56.50
35363;DHT22;21463;47.480;8.214;2022-08-24T04:00:48;21.60;56.50
35363;DHT22;21463;47.480;8.214;2022-08-24T04:01:51;21.60;56.50
35363;DHT22;21463;47.480;8.214;2022-08-24T04:02:56;21.60;56.50
35363;DHT22;21463;47.480;8.214;2022-08-24T04:04:01;21.60;56.50
35363;DHT22;21463;47.480;8.214;2022-08-24T04:05:07;21.60;56.50
35363;DHT22;21463;47.480;8.214;2022-08-24T04:06:12;21.60;56.50
35363;DHT22;21463;47.480;8.214;2022-08-24T04:07:16;21.60;56.50
35363;DHT22;21463;47.480;8.214;2022-08-24T04:08:18;21.60;56.50
35363;DHT22;21463;47.480;8.214;2022-08-24T04:09:22;21.60;56.50
35363;DHT22;21463;47.480;8.214;2022-08-24T04:10:25;21.60;56.50
35363;DHT22;21463;47.480;8.214;2022-08-24T04:11:28;21.60;56.50
35363;DHT22;21463;47.480;8.214;2022-08-24T04:12:31;21.60;56.50
35363;DHT22;21463;47.480;8.214;2022-08-24T04:13:34;21.60;56.50
35363;DHT22;21463;47.480;8.214;2022-08-24T04:14:36;21.60;56.50
35363;DHT22;21463;47.480;8.214;2022-08-24T04:15:46;21.70;56.60
35363;DHT22;21463;47.480;8.214;2022-08-24T04:16:51;21.60;56.50
35363;DHT22;21463;47.480;8.214;2022-08-24T04:18:04;21.60;56.50
35363;DHT22;21463;47.480;8.214;2022-08-24T04:19:07;21.60;56.50
35363;DHT22;21463;47.480;8.214;2022-08-24T04:20:10;21.60;56.50
35363;DHT22;21463;47.480;8.214;2022-08-24T04:21:26;21.60;56.50
35363;DHT22;21463;47.480;8.214;2022-08-24T04:22:30;21.60;56.50
35363;DHT22;21463;47.480;8.214;2022-08-24T04:23:35;21.60;56.50
35363;DHT22;21463;47.480;8.214;2022-08-24T04:24:51;21.60;56.50
35363;DHT22;21463;47.480;8.214;2022-08-24T04:25:53;21.60;56.50
35363;DHT22;21463;47.480;8.214;2022-08-24T04:26:58;21.60;56.50
35363;DHT22;21463;47.480;8.214;2022-08-24T04:28:02;21.60;56.50
35363;DHT22;21463;47.480;8.214;2022-08-24T04:29:07;21.60;56.50
35363;DHT22;21463;47.480;8.214;2022-08-24T04:30:20;21.60;56.50
35363;DHT22;21463;47.480;8.214;2022-08-24T04:31:40;21.60;56.50
35363;DHT22;21463;47.480;8.214;2022-08-24T04:32:43;21.60;56.50
35363;DHT22;21463;47.480;8.214;2022-08-24T04:33:47;21.60;56.50
35363;DHT22;21463;47.480;8.214;2022-08-24T04:34:55;21.60;56.50
35363;DHT22;21463;47.480;8.214;2022-08-24T04:35:59;21.60;56.50
35363;DHT22;21463;47.480;8.214;2022-08-24T04:37:04;21.60;56.50
35363;DHT22;21463;47.480;8.214;2022-08-24T04:38:17;21.60;56.50
35363;DHT22;21463;47.480;8.214;2022-08-24T04:39:33;21.60;56.50
35363;DHT22;21463;47.480;8.214;2022-08-24T04:40:46;21.60;56.50
35363;DHT22;21463;47.480;8.214;2022-08-24T04:41:51;21.60;56.50
35363;DHT22;21463;47.480;8.214;2022-08-24T04:42:55;21.60;56.50
35363;DHT22;21463;47.480;8.214;2022-08-24T04:44:01;21.60;56.50
35363;DHT22;21463;47.480;8.214;2022-08-24T04:45:04;21.60;56.50
35363;DHT22;21463;47.480;8.214;2022-08-24T04:46:07;21.60;56.50
35363;DHT22;21463;47.480;8.214;2022-08-24T04:47:09;21.60;56.50
35363;DHT22;21463;47.480;8.214;2022-08-24T04:48:13;21.60;56.50
35363;DHT22;21463;47.480;8.214;2022-08-24T04:49:16;21.60;56.50
35363;DHT22;21463;47.480;8.214;2022-08-24T04:50:19;21.60;56.50
35363;DHT22;21463;47.480;8.214;2022-08-24T04:51:25;21.60;56.50
35363;DHT22;21463;47.480;8.214;2022-08-24T04:52:33;21.60;56.50
35363;DHT22;21463;47.480;8.214;2022-08-24T04:53:38;21.60;56.50
35363;DHT22;21463;47.480;8.214;2022-08-24T04:54:41;21.60;56.50
35363;DHT22;21463;47.480;8.214;2022-08-24T04:55:48;21.60;56.50
35363;DHT22;21463;47.480;8.214;2022-08-24T04:56:52;21.60;56.50
35363;DHT22;21463;47.480;8.214;2022-08-24T04:57:54;21.60;56.50
35363;DHT22;21463;47.480;8.214;2022-08-24T04:59:00;21.60;56.50
35363;DHT22;21463;47.480;8.214;2022-08-24T05:00:04;21.60;56.50
35363;DHT22;21463;47.480;8.214;2022-08-24T05:01:12;21.60;56.50
35363;DHT22;21463;47.480;8.214;2022-08-24T05:02:14;21.60;56.50
35363;DHT22;21463;47.480;8.214;2022-08-24T05:03:20;21.60;56.50
35363;DHT22;21463;47.480;8.214;2022-08-24T05:04:24;21.60;56.50
35363;DHT22;21463;47.480;8.214;2022-08-24T05:05:26;21.60;56.50
35363;DHT22;21463;47.480;8.214;2022-08-24T05:06:31;21.60;56.50
35363;DHT22;21463;47.480;8.214;2022-08-24T05:07:36;21.60;56.50
35363;DHT22;21463;47.480;8.214;2022-08-24T05:08:39;21.60;56.50
35363;DHT22;21463;47.480;8.214;2022-08-24T05:09:41;21.60;56.50
35363;DHT22;21463;47.480;8.214;2022-08-24T05:10:46;21.60;56.50
35363;DHT22;21463;47.480;8.214;2022-08-24T05:11:49;21.60;56.50
35363;DHT22;21463;47.480;8.214;2022-08-24T05:12:56;21.60;56.50
35363;DHT22;21463;47.480;8.214;2022-08-24T05:13:59;21.60;56.50
35363;DHT22;21463;47.480;8.214;2022-08-24T05:15:05;21.60;56.50
35363;DHT22;21463;47.480;8.214;2022-08-24T05:16:15;21.60;56.50
35363;DHT22;21463;47.480;8.214;2022-08-24T05:17:19;21.60;56.50
35363;DHT22;21463;47.480;8.214;2022-08-24T05:18:21;21.60;56.50
35363;DHT22;21463;47.480;8.214;2022-08-24T05:19:23;21.60;56.50
35363;DHT22;21463;47.480;8.214;2022-08-24T05:20:28;21.60;56.50
35363;DHT22;21463;47.480;8.214;2022-08-24T05:21:32;21.60;56.50
35363;DHT22;21463;47.480;8.214;2022-08-24T05:22:35;21.50;56.40
35363;DHT22;21463;47.480;8.214;2022-08-24T05:23:40;21.60;56.50
35363;DHT22;21463;47.480;8.214;2022-08-24T05:24:49;21.60;56.50
35363;DHT22;21463;47.480;8.214;2022-08-24T05:25:52;21.70;56.50
35363;DHT22;21463;47.480;8.214;2022-08-24T05:27:04;21.60;56.50
35363;DHT22;21463;47.480;8.214;2022-08-24T05:28:07;21.60;56.50
35363;DHT22;21463;47.480;8.214;2022-08-24T05:29:10;21.60;56.50
35363;DHT22;21463;47.480;8.214;2022-08-24T05:30:19;21.60;56.50
35363;DHT22;21463;47.480;8.214;2022-08-24T05:31:24;21.60;56.50
35363;DHT22;21463;47.480;8.214;2022-08-24T05:32:27;21.60;56.50
35363;DHT22;21463;47.480;8.214;2022-08-24T05:33:29;21.60;56.50
35363;DHT22;21463;47.480;8.214;2022-08-24T05:34:32;21.60;56.50
35363;DHT22;21463;47.480;8.214;2022-08-24T05:35:38;21.60;56.50
35363;DHT22;21463;47.480;8.214;2022-08-24T05:36:47;21.60;56.50
35363;DHT22;21463;47.480;8.214;2022-08-24T05:38:00;21.60;56.50
35363;DHT22;21463;47.480;8.214;2022-08-24T05:39:10;21.60;56.50
35363;DHT22;21463;47.480;8.214;2022-08-24T05:40:17;21.60;56.50
35363;DHT22;21463;47.480;8.214;2022-08-24T05:41:29;21.60;56.50
35363;DHT22;21463;47.480;8.214;2022-08-24T05:42:40;21.60;56.50
35363;DHT22;21463;47.480;8.214;2022-08-24T05:43:43;21.60;56.50
35363;DHT22;21463;47.480;8.214;2022-08-24T05:44:48;21.60;56.40
35363;DHT22;21463;47.480;8.214;2022-08-24T05:45:56;21.60;56.50
35363;DHT22;21463;47.480;8.214;2022-08-24T05:46:59;21.60;56.50
35363;DHT22;21463;47.480;8.214;2022-08-24T05:48:04;21.50;56.40
35363;DHT22;21463;47.480;8.214;2022-08-24T05:49:30;21.50;56.40
35363;DHT22;21463;47.480;8.214;2022-08-24T05:50:33;21.50;56.40
35363;DHT22;21463;47.480;8.214;2022-08-24T05:51:36;21.60;56.50
35363;DHT22;21463;47.480;8.214;2022-08-24T05:52:42;21.60;56.50
35363;DHT22;21463;47.480;8.214;2022-08-24T05:53:45;21.50;56.40
35363;DHT22;21463;47.480;8.214;2022-08-24T05:54:53;21.60;56.50
35363;DHT22;21463;47.480;8.214;2022-08-24T05:55:56;21.60;56.50
35363;DHT22;21463;47.480;8.214;2022-08-24T05:56:59;21.60;56.50
35363;DHT22;21463;47.480;8.214;2022-08-24T05:58:12;21.50;56.40
35363;DHT22;21463;47.480;8.214;2022-08-24T05:59:25;21.60;56.50
35363;DHT22;21463;47.480;8.214;2022-08-24T06:00:27;21.50;56.40
35363;DHT22;21463;47.480;8.214;2022-08-24T06:01:30;21.50;56.40
35363;DHT22;21463;47.480;8.214;2022-08-24T06:02:32;21.60;56.50
35363;DHT22;21463;47.480;8.214;2022-08-24T06:03:37;21.60;56.50
35363;DHT22;21463;47.480;8.214;2022-08-24T06:04:43;21.60;56.50
35363;DHT22;21463;47.480;8.214;2022-08-24T06:05:46;21.50;56.40
35363;DHT22;21463;47.480;8.214;2022-08-24T06:06:50;21.60;56.50
35363;DHT22;21463;47.480;8.214;2022-08-24T06:07:52;21.50;56.40
35363;DHT22;21463;47.480;8.214;2022-08-24T06:08:57;21.60;56.50
35363;DHT22;21463;47.480;8.214;2022-08-24T06:10:00;21.50;56.40
35363;DHT22;21463;47.480;8.214;2022-08-24T06:11:29;21.60;56.50
35363;DHT22;21463;47.480;8.214;2022-08-24T06:12:33;21.50;56.40
35363;DHT22;21463;47.480;8.214;2022-08-24T06:13:37;21.60;56.50
35363;DHT22;21463;47.480;8.214;2022-08-24T06:14:39;21.60;56.50
35363;DHT22;21463;47.480;8.214;2022-08-24T06:15:44;21.60;56.50
35363;DHT22;21463;47.480;8.214;2022-08-24T06:17:07;21.60;57.00
35363;DHT22;21463;47.480;8.214;2022-08-24T06:18:10;21.60;56.50
35363;DHT22;21463;47.480;8.214;2022-08-24T06:19:15;21.60;56.50
35363;DHT22;21463;47.480;8.214;2022-08-24T06:20:18;21.60;56.50
35363;DHT22;21463;47.480;8.214;2022-08-24T06:21:24;21.60;56.50
35363;DHT22;21463;47.480;8.214;2022-08-24T06:22:30;21.50;56.40
35363;DHT22;21463;47.480;8.214;2022-08-24T06:23:34;21.50;56.40
35363;DHT22;21463;47.480;8.214;2022-08-24T06:24:37;21.60;56.50
35363;DHT22;21463;47.480;8.214;2022-08-24T06:26:02;21.60;56.50
35363;DHT22;21463;47.480;8.214;2022-08-24T06:27:24;21.60;56.50
35363;DHT22;21463;47.480;8.214;2022-08-24T06:28:28;21.60;56.50
35363;DHT22;21463;47.480;8.214;2022-08-24T06:29:33;21.60;56.50
35363;DHT22;21463;47.480;8.214;2022-08-24T06:31:05;21.60;56.50
35363;DHT22;21463;47.480;8.214;2022-08-24T06:32:13;21.60;56.50
35363;DHT22;21463;47.480;8.214;2022-08-24T06:33:15;21.60;56.50
35363;DHT22;21463;47.480;8.214;2022-08-24T06:34:21;21.60;56.50
35363;DHT22;21463;47.480;8.214;2022-08-24T06:35:24;21.60;56.50
35363;DHT22;21463;47.480;8.214;2022-08-24T06:36:27;21.50;56.50
35363;DHT22;21463;47.480;8.214;2022-08-24T06:37:29;21.50;56.50
35363;DHT22;21463;47.480;8.214;2022-08-24T06:38:33;21.60;56.50
35363;DHT22;21463;47.480;8.214;2022-08-24T06:39:38;21.50;56.50
35363;DHT22;21463;47.480;8.214;2022-08-24T06:40:43;21.50;56.50
35363;DHT22;21463;47.480;8.214;2022-08-24T06:41:46;21.50;56.50
35363;DHT22;21463;47.480;8.214;2022-08-24T06:43:02;21.60;56.50
35363;DHT22;21463;47.480;8.214;2022-08-24T06:44:18;21.50;56.50
35363;DHT22;21463;47.480;8.214;2022-08-24T06:45:25;21.60;56.50
35363;DHT22;21463;47.480;8.214;2022-08-24T06:46:28;21.60;56.50
35363;DHT22;21463;47.480;8.214;2022-08-24T06:47:34;21.50;56.50
35363;DHT22;21463;47.480;8.214;2022-08-24T06:48:37;21.50;56.50
35363;DHT22;21463;47.480;8.214;2022-08-24T06:49:40;21.50;56.50
35363;DHT22;21463;47.480;8.214;2022-08-24T06:50:42;21.60;56.60
35363;DHT22;21463;47.480;8.214;2022-08-24T06:51:45;21.50;56.50
35363;DHT22;21463;47.480;8.214;2022-08-24T06:52:52;21.60;56.50
35363;DHT22;21463;47.480;8.214;2022-08-24T06:53:54;21.50;56.50
35363;DHT22;21463;47.480;8.214;2022-08-24T06:55:01;21.60;56.60
35363;DHT22;21463;47.480;8.214;2022-08-24T06:56:04;21.60;56.60